sensor_id;sensor_type;location;lat;lon;timestamp;pressure;altitude;pressure_sealevel;temperature;humidity
29371;BME280;16357;52.188;7.838;2023-04-23T00:01:03;100052.28;;;15.01;57.85
29371;BME280;16357;52.188;7.838;2023-04-23T00:03:31;100055.41;;;14.98;57.81
29371;BME280;16357;52.188;7.838;2023-04-23T00:06:04;100056.44;;;14.97;57.43
29371;BME280;16357;52.188;7.838;2023-04-23T00:08:32;100049.78;;;14.92;57.69
29371;BME280;16357;52.188;7.838;2023-04-23T00:10:58;100050.19;;;14.89;57.28
29371;BME280;16357;52.188;7.838;2023-04-23T00:13:25;100050.59;;;14.86;56.94
29371;BME280;16357;52.188;7.838;2023-04-23T00:15:51;100046.41;;;14.84;56.67
29371;BME280;16357;52.188;7.838;2023-04-23T00:18:18;100058.03;;;14.78;56.86
29371;BME280;16357;52.188;7.838;2023-04-23T00:20:45;100048.88;;;14.72;56.88
29371;BME280;16357;52.188;7.838;2023-04-23T00:23:11;100063.97;;;14.66;56.83
29371;BME280;16357;52.188;7.838;2023-04-23T00:25:38;100049.41;;;14.61;56.78
29371;BME280;16357;52.188;7.838;2023-04-23T00:28:04;100058.13;;;14.56;56.66
29371;BME280;16357;52.188;7.838;2023-04-23T00:30:31;100053.31;;;14.52;56.75
29371;BME280;16357;52.188;7.838;2023-04-23T00:32:57;100053.06;;;14.46;56.72
29371;BME280;16357;52.188;7.838;2023-04-23T00:35:24;100052.81;;;14.41;56.91
29371;BME280;16357;52.188;7.838;2023-04-23T00:37:50;100050.72;;;14.37;56.71
29371;BME280;16357;52.188;7.838;2023-04-23T00:40:17;100047.59;;;14.33;56.83
29371;BME280;16357;52.188;7.838;2023-04-23T00:42:43;100049.00;;;14.29;56.95
29371;BME280;16357;52.188;7.838;2023-04-23T00:45:10;100052.09;;;14.26;57.03
29371;BME280;16357;52.188;7.838;2023-04-23T00:47:39;100049.81;;;14.23;56.71
29371;BME280;16357;52.188;7.838;2023-04-23T00:50:06;100045.81;;;14.19;56.79
29371;BME280;16357;52.188;7.838;2023-04-23T00:52:33;100042.69;;;14.15;56.85
29371;BME280;16357;52.188;7.838;2023-04-23T00:55:01;100048.47;;;14.12;56.84
29371;BME280;16357;52.188;7.838;2023-04-23T00:57:28;100049.28;;;14.06;57.04
29371;BME280;16357;52.188;7.838;2023-04-23T00:59:54;100054.22;;;14.02;57.00
29371;BME280;16357;52.188;7.838;2023-04-23T01:02:24;100060.81;;;14.00;57.08
29371;BME280;16357;52.188;7.838;2023-04-23T01:04:53;100063.91;;;13.97;57.07
29371;BME280;16357;52.188;7.838;2023-04-23T01:07:21;100060.78;;;13.93;57.22
29371;BME280;16357;52.188;7.838;2023-04-23T01:09:49;100062.84;;;13.91;57.42
29371;BME280;16357;52.188;7.838;2023-04-23T01:12:16;100052.44;;;13.88;57.65
29371;BME280;16357;52.188;7.838;2023-04-23T01:14:43;100055.34;;;13.87;57.70
29371;BME280;16357;52.188;7.838;2023-04-23T01:17:10;100048.28;;;13.86;57.77
29371;BME280;16357;52.188;7.838;2023-04-23T01:19:39;100049.28;;;13.84;57.65
29371;BME280;16357;52.188;7.838;2023-04-23T01:22:11;100049.50;;;13.83;57.62
29371;BME280;16357;52.188;7.838;2023-04-23T01:24:38;100053.22;;;13.82;57.93
29371;BME280;16357;52.188;7.838;2023-04-23T01:27:07;100054.06;;;13.82;57.88
29371;BME280;16357;52.188;7.838;2023-04-23T01:29:33;100052.38;;;13.81;57.95
29371;BME280;16357;52.188;7.838;2023-04-23T01:32:01;100060.47;;;13.81;58.19
29371;BME280;16357;52.188;7.838;2023-04-23T01:34:32;100064.00;;;13.82;57.88
29371;BME280;16357;52.188;7.838;2023-04-23T01:37:01;100070.25;;;13.82;58.06
29371;BME280;16357;52.188;7.838;2023-04-23T01:39:28;100073.78;;;13.83;58.24
29371;BME280;16357;52.188;7.838;2023-04-23T01:41:55;100081.03;;;13.82;58.07
29371;BME280;16357;52.188;7.838;2023-04-23T01:44:22;100081.84;;;13.83;58.40
29371;BME280;16357;52.188;7.838;2023-04-23T01:46:48;100086.22;;;13.84;58.20
29371;BME280;16357;52.188;7.838;2023-04-23T01:49:15;100088.09;;;13.83;58.33
29371;BME280;16357;52.188;7.838;2023-04-23T01:51:42;100075.44;;;13.84;58.35
29371;BME280;16357;52.188;7.838;2023-04-23T01:54:08;100075.44;;;13.84;58.18
29371;BME280;16357;52.188;7.838;2023-04-23T01:56:34;100088.25;;;13.82;58.15
29371;BME280;16357;52.188;7.838;2023-04-23T01:59:01;100083.72;;;13.82;57.94
29371;BME280;16357;52.188;7.838;2023-04-23T02:01:40;100085.56;;;13.82;57.72
29371;BME280;16357;52.188;7.838;2023-04-23T02:04:08;100085.97;;;13.79;57.81
29371;BME280;16357;52.188;7.838;2023-04-23T02:06:35;100071.81;;;13.77;57.86
29371;BME280;16357;52.188;7.838;2023-04-23T02:09:02;100076.41;;;13.76;57.77
29371;BME280;16357;52.188;7.838;2023-04-23T02:11:28;100073.91;;;13.75;57.79
29371;BME280;16357;52.188;7.838;2023-04-23T02:13:54;100067.88;;;13.73;57.89
29371;BME280;16357;52.188;7.838;2023-04-23T02:16:21;100059.13;;;13.71;57.89
29371;BME280;16357;52.188;7.838;2023-04-23T02:18:50;100059.53;;;13.68;57.83
29371;BME280;16357;52.188;7.838;2023-04-23T02:21:16;100068.00;;;13.65;57.77
29371;BME280;16357;52.188;7.838;2023-04-23T02:23:43;100075.25;;;13.64;58.17
29371;BME280;16357;52.188;7.838;2023-04-23T02:26:09;100072.09;;;13.60;57.96
29371;BME280;16357;52.188;7.838;2023-04-23T02:28:36;100074.16;;;13.58;58.03
29371;BME280;16357;52.188;7.838;2023-04-23T02:31:02;100067.94;;;13.58;58.28
29371;BME280;16357;52.188;7.838;2023-04-23T02:33:29;100067.28;;;13.56;58.14
29371;BME280;16357;52.188;7.838;2023-04-23T02:35:55;100070.84;;;13.56;58.20
29371;BME280;16357;52.188;7.838;2023-04-23T02:38:21;100084.50;;;13.55;58.31
29371;BME280;16357;52.188;7.838;2023-04-23T02:40:48;100080.13;;;13.54;58.25
29371;BME280;16357;52.188;7.838;2023-04-23T02:43:14;100077.63;;;13.52;58.21
29371;BME280;16357;52.188;7.838;2023-04-23T02:45:40;100079.47;;;13.52;58.34
29371;BME280;16357;52.188;7.838;2023-04-23T02:48:07;100078.84;;;13.50;58.60
29371;BME280;16357;52.188;7.838;2023-04-23T02:50:33;100073.66;;;13.48;58.58
29371;BME280;16357;52.188;7.838;2023-04-23T02:53:00;100077.34;;;13.47;58.60
29371;BME280;16357;52.188;7.838;2023-04-23T02:55:26;100070.97;;;13.48;58.39
29371;BME280;16357;52.188;7.838;2023-04-23T02:57:57;100069.28;;;13.47;58.71
29371;BME280;16357;52.188;7.838;2023-04-23T03:00:24;100083.78;;;13.46;58.32
29371;BME280;16357;52.188;7.838;2023-04-23T03:02:51;100077.56;;;13.46;58.48
29371;BME280;16357;52.188;7.838;2023-04-23T03:05:18;100079.41;;;13.45;58.41
29371;BME280;16357;52.188;7.838;2023-04-23T03:07:44;100083.13;;;13.44;58.31
29371;BME280;16357;52.188;7.838;2023-04-23T03:10:11;100077.09;;;13.42;58.26
29371;BME280;16357;52.188;7.838;2023-04-23T03:12:37;100081.84;;;13.40;58.43
29371;BME280;16357;52.188;7.838;2023-04-23T03:15:04;100076.84;;;13.37;58.38
29371;BME280;16357;52.188;7.838;2023-04-23T03:17:31;100076.00;;;13.36;58.64
29371;BME280;16357;52.188;7.838;2023-04-23T03:19:57;100075.56;;;13.33;58.64
29371;BME280;16357;52.188;7.838;2023-04-23T03:22:24;100074.09;;;13.30;58.72
29371;BME280;16357;52.188;7.838;2023-04-23T03:24:50;100071.78;;;13.27;58.69
29371;BME280;16357;52.188;7.838;2023-04-23T03:27:17;100065.88;;;13.24;58.55
29371;BME280;16357;52.188;7.838;2023-04-23T03:29:43;100077.88;;;13.21;58.31
29371;BME280;16357;52.188;7.838;2023-04-23T03:32:09;100078.47;;;13.16;58.47
29371;BME280;16357;52.188;7.838;2023-04-23T03:34:36;100080.88;;;13.11;58.75
29371;BME280;16357;52.188;7.838;2023-04-23T03:37:02;100076.91;;;13.07;58.54
29371;BME280;16357;52.188;7.838;2023-04-23T03:39:29;100072.28;;;13.01;58.61
29371;BME280;16357;52.188;7.838;2023-04-23T03:41:55;100067.28;;;12.98;58.78
29371;BME280;16357;52.188;7.838;2023-04-23T03:44:23;100073.22;;;12.93;59.11
29371;BME280;16357;52.188;7.838;2023-04-23T03:46:49;100067.56;;;12.88;59.05
29371;BME280;16357;52.188;7.838;2023-04-23T03:49:17;100073.50;;;12.84;59.23
29371;BME280;16357;52.188;7.838;2023-04-23T03:51:43;100064.97;;;12.80;59.28
29371;BME280;16357;52.188;7.838;2023-04-23T03:54:10;100055.41;;;12.78;59.60
29371;BME280;16357;52.188;7.838;2023-04-23T03:56:36;100057.63;;;12.74;59.61
29371;BME280;16357;52.188;7.838;2023-04-23T03:59:02;100058.22;;;12.69;59.44
29371;BME280;16357;52.188;7.838;2023-04-23T04:01:29;100058.38;;;12.68;59.52
29371;BME280;16357;52.188;7.838;2023-04-23T04:03:57;100053.38;;;12.65;59.57
29371;BME280;16357;52.188;7.838;2023-04-23T04:06:24;100056.44;;;12.62;59.80
29371;BME280;16357;52.188;7.838;2023-04-23T04:08:51;100058.47;;;12.60;59.75
29371;BME280;16357;52.188;7.838;2023-04-23T04:11:17;100054.31;;;12.57;59.95
29371;BME280;16357;52.188;7.838;2023-04-23T04:13:44;100055.53;;;12.55;60.08
29371;BME280;16357;52.188;7.838;2023-04-23T04:16:10;100050.50;;;12.51;60.12
29371;BME280;16357;52.188;7.838;2023-04-23T04:18:37;100056.91;;;12.50;60.29
29371;BME280;16357;52.188;7.838;2023-04-23T04:21:04;100054.41;;;12.49;60.28
29371;BME280;16357;52.188;7.838;2023-04-23T04:23:31;100046.72;;;12.46;60.08
29371;BME280;16357;52.188;7.838;2023-04-23T04:25:58;100050.41;;;12.45;60.42
29371;BME280;16357;52.188;7.838;2023-04-23T04:28:25;100053.31;;;12.43;60.37
29371;BME280;16357;52.188;7.838;2023-04-23T04:30:51;100058.84;;;12.42;60.23
29371;BME280;16357;52.188;7.838;2023-04-23T04:33:19;100054.50;;;12.41;60.43
29371;BME280;16357;52.188;7.838;2023-04-23T04:35:46;100055.50;;;12.40;60.64
29371;BME280;16357;52.188;7.838;2023-04-23T04:38:14;100056.53;;;12.39;60.54
29371;BME280;16357;52.188;7.838;2023-04-23T04:40:41;100064.78;;;12.37;60.52
29371;BME280;16357;52.188;7.838;2023-04-23T04:43:07;100052.38;;;12.36;60.83
29371;BME280;16357;52.188;7.838;2023-04-23T04:45:35;100056.09;;;12.35;60.86
29371;BME280;16357;52.188;7.838;2023-04-23T04:48:01;100056.25;;;12.34;60.78
29371;BME280;16357;52.188;7.838;2023-04-23T04:50:28;100051.91;;;12.33;60.99
29371;BME280;16357;52.188;7.838;2023-04-23T04:52:54;100058.28;;;12.32;61.00
29371;BME280;16357;52.188;7.838;2023-04-23T04:55:21;100053.94;;;12.30;60.96
29371;BME280;16357;52.188;7.838;2023-04-23T04:57:47;100062.84;;;12.31;61.14
29371;BME280;16357;52.188;7.838;2023-04-23T05:00:20;100059.31;;;12.30;60.82
29371;BME280;16357;52.188;7.838;2023-04-23T05:02:49;100068.03;;;12.33;61.21
29371;BME280;16357;52.188;7.838;2023-04-23T05:05:17;100060.97;;;12.32;61.58
29371;BME280;16357;52.188;7.838;2023-04-23T05:07:44;100060.59;;;12.35;61.79
29371;BME280;16357;52.188;7.838;2023-04-23T05:10:11;100060.25;;;12.38;61.95
29371;BME280;16357;52.188;7.838;2023-04-23T05:12:37;100057.84;;;12.43;62.33
29371;BME280;16357;52.188;7.838;2023-04-23T05:15:08;100067.03;;;12.48;61.94
29371;BME280;16357;52.188;7.838;2023-04-23T05:17:35;100053.84;;;12.54;62.04
29371;BME280;16357;52.188;7.838;2023-04-23T05:20:02;100063.88;;;12.60;61.96
29371;BME280;16357;52.188;7.838;2023-04-23T05:22:28;100061.44;;;12.65;61.59
29371;BME280;16357;52.188;7.838;2023-04-23T05:24:55;100060.91;;;12.69;61.63
29371;BME280;16357;52.188;7.838;2023-04-23T05:27:22;100064.88;;;12.73;61.48
29371;BME280;16357;52.188;7.838;2023-04-23T05:29:48;100056.41;;;12.77;61.62
29371;BME280;16357;52.188;7.838;2023-04-23T05:32:15;100062.06;;;12.82;61.42
29371;BME280;16357;52.188;7.838;2023-04-23T05:34:41;100056.31;;;12.85;61.32
29371;BME280;16357;52.188;7.838;2023-04-23T05:37:08;100062.34;;;12.87;61.20
29371;BME280;16357;52.188;7.838;2023-04-23T05:39:34;100059.28;;;12.90;61.29
29371;BME280;16357;52.188;7.838;2023-04-23T05:42:01;100057.22;;;12.92;61.36
29371;BME280;16357;52.188;7.838;2023-04-23T05:44:28;100056.84;;;12.95;61.26
29371;BME280;16357;52.188;7.838;2023-04-23T05:46:55;100059.38;;;12.96;61.06
29371;BME280;16357;52.188;7.838;2023-04-23T05:49:21;100060.03;;;12.99;61.54
29371;BME280;16357;52.188;7.838;2023-04-23T05:51:48;100056.13;;;13.01;61.12
29371;BME280;16357;52.188;7.838;2023-04-23T05:54:15;100052.38;;;13.02;61.30
29371;BME280;16357;52.188;7.838;2023-04-23T05:56:42;100054.69;;;13.05;61.45
29371;BME280;16357;52.188;7.838;2023-04-23T05:59:08;100058.31;;;13.12;62.02
29371;BME280;16357;52.188;7.838;2023-04-23T06:01:34;100053.84;;;13.20;62.09
29371;BME280;16357;52.188;7.838;2023-04-23T06:04:01;100058.94;;;13.29;62.06
29371;BME280;16357;52.188;7.838;2023-04-23T06:06:27;100053.22;;;13.39;62.05
29371;BME280;16357;52.188;7.838;2023-04-23T06:08:54;100047.31;;;13.50;61.84
29371;BME280;16357;52.188;7.838;2023-04-23T06:11:21;100049.53;;;13.61;61.76
29371;BME280;16357;52.188;7.838;2023-04-23T06:13:47;100048.16;;;13.72;61.52
29371;BME280;16357;52.188;7.838;2023-04-23T06:16:14;100042.25;;;13.83;61.53
29371;BME280;16357;52.188;7.838;2023-04-23T06:18:40;100047.09;;;13.95;61.45
29371;BME280;16357;52.188;7.838;2023-04-23T06:21:07;100044.91;;;14.05;60.97
29371;BME280;16357;52.188;7.838;2023-04-23T06:23:34;100039.81;;;14.17;60.90
29371;BME280;16357;52.188;7.838;2023-04-23T06:26:00;100041.13;;;14.27;60.92
29371;BME280;16357;52.188;7.838;2023-04-23T06:28:27;100041.59;;;14.38;60.57
29371;BME280;16357;52.188;7.838;2023-04-23T06:30:53;100035.00;;;14.47;60.11
29371;BME280;16357;52.188;7.838;2023-04-23T06:33:19;100025.94;;;14.55;59.77
29371;BME280;16357;52.188;7.838;2023-04-23T06:35:46;100022.25;;;14.62;59.36
29371;BME280;16357;52.188;7.838;2023-04-23T06:38:12;100018.94;;;14.67;59.18
29371;BME280;16357;52.188;7.838;2023-04-23T06:40:39;100020.41;;;14.69;58.95
29371;BME280;16357;52.188;7.838;2023-04-23T06:43:05;100021.88;;;14.72;58.86
29371;BME280;16357;52.188;7.838;2023-04-23T06:45:33;100018.13;;;14.73;58.78
29371;BME280;16357;52.188;7.838;2023-04-23T06:48:00;100023.34;;;14.75;58.75
29371;BME280;16357;52.188;7.838;2023-04-23T06:50:26;100013.38;;;14.75;58.80
29371;BME280;16357;52.188;7.838;2023-04-23T06:52:53;100005.91;;;14.77;59.02
29371;BME280;16357;52.188;7.838;2023-04-23T06:55:21;100003.22;;;14.77;58.72
29371;BME280;16357;52.188;7.838;2023-04-23T06:57:51;100002.16;;;14.78;58.60
29371;BME280;16357;52.188;7.838;2023-04-23T07:00:18;99997.41;;;14.80;58.53
29371;BME280;16357;52.188;7.838;2023-04-23T07:02:45;99989.91;;;14.82;58.69
29371;BME280;16357;52.188;7.838;2023-04-23T07:05:12;99995.13;;;14.84;58.42
29371;BME280;16357;52.188;7.838;2023-04-23T07:07:39;99996.56;;;14.86;58.55
29371;BME280;16357;52.188;7.838;2023-04-23T07:10:06;99985.38;;;14.89;58.73
29371;BME280;16357;52.188;7.838;2023-04-23T07:12:32;99987.28;;;14.96;58.23
29371;BME280;16357;52.188;7.838;2023-04-23T07:14:59;99982.06;;;15.01;57.91
29371;BME280;16357;52.188;7.838;2023-04-23T07:17:25;99986.84;;;15.05;58.27
29371;BME280;16357;52.188;7.838;2023-04-23T07:19:52;99980.66;;;15.11;58.23
29371;BME280;16357;52.188;7.838;2023-04-23T07:22:18;99978.78;;;15.19;58.12
29371;BME280;16357;52.188;7.838;2023-04-23T07:24:45;99984.22;;;15.25;57.15
29371;BME280;16357;52.188;7.838;2023-04-23T07:27:11;99982.34;;;15.32;57.29
29371;BME280;16357;52.188;7.838;2023-04-23T07:29:38;99986.69;;;15.40;56.88
29371;BME280;16357;52.188;7.838;2023-04-23T07:32:04;99981.13;;;15.48;56.88
29371;BME280;16357;52.188;7.838;2023-04-23T07:34:31;99983.38;;;15.58;56.82
29371;BME280;16357;52.188;7.838;2023-04-23T07:36:57;99980.47;;;15.66;56.87
29371;BME280;16357;52.188;7.838;2023-04-23T07:39:24;99977.19;;;15.77;57.05
29371;BME280;16357;52.188;7.838;2023-04-23T07:41:50;99983.03;;;15.88;57.00
29371;BME280;16357;52.188;7.838;2023-04-23T07:44:16;99976.13;;;15.98;56.79
29371;BME280;16357;52.188;7.838;2023-04-23T07:46:43;99967.13;;;16.11;56.37
29371;BME280;16357;52.188;7.838;2023-04-23T07:49:09;99962.75;;;16.23;56.31
29371;BME280;16357;52.188;7.838;2023-04-23T07:51:36;99967.09;;;16.38;56.13
29371;BME280;16357;52.188;7.838;2023-04-23T07:54:02;99971.38;;;16.52;56.11
29371;BME280;16357;52.188;7.838;2023-04-23T07:56:29;99956.75;;;16.66;55.65
29371;BME280;16357;52.188;7.838;2023-04-23T07:58:58;99963.34;;;16.84;55.79
29371;BME280;16357;52.188;7.838;2023-04-23T08:01:25;99959.31;;;17.00;55.31
29371;BME280;16357;52.188;7.838;2023-04-23T08:03:51;99951.47;;;17.17;54.94
29371;BME280;16357;52.188;7.838;2023-04-23T08:06:24;99950.13;;;17.32;54.76
29371;BME280;16357;52.188;7.838;2023-04-23T08:08:52;99949.78;;;17.47;54.26
29371;BME280;16357;52.188;7.838;2023-04-23T08:11:21;99946.97;;;17.61;53.67
29371;BME280;16357;52.188;7.838;2023-04-23T08:13:47;99946.84;;;17.74;53.05
29371;BME280;16357;52.188;7.838;2023-04-23T08:16:14;99940.13;;;17.83;53.32
29371;BME280;16357;52.188;7.838;2023-04-23T08:18:40;99949.63;;;17.92;53.51
29371;BME280;16357;52.188;7.838;2023-04-23T08:21:07;99948.28;;;18.02;52.94
29371;BME280;16357;52.188;7.838;2023-04-23T08:23:33;99945.50;;;18.08;52.01
29371;BME280;16357;52.188;7.838;2023-04-23T08:26:00;99949.19;;;18.14;52.30
29371;BME280;16357;52.188;7.838;2023-04-23T08:28:27;99943.34;;;18.17;52.00
29371;BME280;16357;52.188;7.838;2023-04-23T08:30:53;99937.44;;;18.20;52.08
29371;BME280;16357;52.188;7.838;2023-04-23T08:33:20;99940.78;;;18.22;51.48
29371;BME280;16357;52.188;7.838;2023-04-23T08:35:47;99951.38;;;18.24;51.13
29371;BME280;16357;52.188;7.838;2023-04-23T08:38:13;99942.63;;;18.21;51.31
29371;BME280;16357;52.188;7.838;2023-04-23T08:40:41;99951.84;;;18.20;51.42
29371;BME280;16357;52.188;7.838;2023-04-23T08:43:15;99941.66;;;18.16;51.29
29371;BME280;16357;52.188;7.838;2023-04-23T08:45:46;99936.47;;;18.14;51.61
29371;BME280;16357;52.188;7.838;2023-04-23T08:48:13;99944.81;;;18.13;51.89
29371;BME280;16357;52.188;7.838;2023-04-23T08:50:44;99940.63;;;18.17;51.95
29371;BME280;16357;52.188;7.838;2023-04-23T08:53:17;99936.38;;;18.21;51.79
29371;BME280;16357;52.188;7.838;2023-04-23T08:55:45;99931.09;;;18.26;51.70
29371;BME280;16357;52.188;7.838;2023-04-23T08:58:14;99928.06;;;18.34;51.45
29371;BME280;16357;52.188;7.838;2023-04-23T09:00:41;99929.66;;;18.42;51.10
29371;BME280;16357;52.188;7.838;2023-04-23T09:03:08;99929.59;;;18.49;51.08
29371;BME280;16357;52.188;7.838;2023-04-23T09:05:35;99923.22;;;18.55;50.92
29371;BME280;16357;52.188;7.838;2023-04-23T09:08:01;99931.53;;;18.60;50.84
29371;BME280;16357;52.188;7.838;2023-04-23T09:10:28;99925.41;;;18.64;50.55
29371;BME280;16357;52.188;7.838;2023-04-23T09:12:54;99930.13;;;18.69;50.67
29371;BME280;16357;52.188;7.838;2023-04-23T09:15:20;99920.69;;;18.72;50.68
29371;BME280;16357;52.188;7.838;2023-04-23T09:17:47;99917.56;;;18.75;50.88
29371;BME280;16357;52.188;7.838;2023-04-23T09:20:15;99910.59;;;18.79;49.82
29371;BME280;16357;52.188;7.838;2023-04-23T09:22:42;99915.81;;;18.80;50.15
29371;BME280;16357;52.188;7.838;2023-04-23T09:25:15;99910.75;;;18.84;50.46
29371;BME280;16357;52.188;7.838;2023-04-23T09:27:43;99914.88;;;18.86;50.71
29371;BME280;16357;52.188;7.838;2023-04-23T09:30:11;99909.81;;;18.90;50.14
29371;BME280;16357;52.188;7.838;2023-04-23T09:32:39;99915.63;;;18.94;49.88
29371;BME280;16357;52.188;7.838;2023-04-23T09:35:12;99910.06;;;19.00;50.16
29371;BME280;16357;52.188;7.838;2023-04-23T09:37:46;99911.88;;;19.06;50.53
29371;BME280;16357;52.188;7.838;2023-04-23T09:40:16;99894.84;;;19.11;50.76
29371;BME280;16357;52.188;7.838;2023-04-23T09:42:50;99895.09;;;19.21;50.57
29371;BME280;16357;52.188;7.838;2023-04-23T09:45:19;99899.16;;;19.30;50.33
29371;BME280;16357;52.188;7.838;2023-04-23T09:47:50;99889.69;;;19.45;50.46
29371;BME280;16357;52.188;7.838;2023-04-23T09:50:37;99893.25;;;19.57;49.49
29371;BME280;16357;52.188;7.838;2023-04-23T09:53:07;99889.03;;;19.73;49.33
29371;BME280;16357;52.188;7.838;2023-04-23T09:55:37;99891.50;;;19.86;49.18
29371;BME280;16357;52.188;7.838;2023-04-23T09:58:14;99894.69;;;19.95;48.70
29371;BME280;16357;52.188;7.838;2023-04-23T10:00:41;99885.66;;;20.06;48.07
29371;BME280;16357;52.188;7.838;2023-04-23T10:03:08;99884.22;;;20.15;48.25
29371;BME280;16357;52.188;7.838;2023-04-23T10:05:40;99882.31;;;20.28;48.16
29371;BME280;16357;52.188;7.838;2023-04-23T10:08:11;99883.09;;;20.40;47.73
29371;BME280;16357;52.188;7.838;2023-04-23T10:10:39;99879.50;;;20.51;46.97
29371;BME280;16357;52.188;7.838;2023-04-23T10:13:26;99871.91;;;20.65;46.61
29371;BME280;16357;52.188;7.838;2023-04-23T10:15:53;99875.13;;;20.79;46.76
29371;BME280;16357;52.188;7.838;2023-04-23T10:18:20;99862.50;;;20.90;46.24
29371;BME280;16357;52.188;7.838;2023-04-23T10:20:48;99879.38;;;21.03;46.24
29371;BME280;16357;52.188;7.838;2023-04-23T10:23:16;99881.72;;;21.12;45.36
29371;BME280;16357;52.188;7.838;2023-04-23T10:25:44;99885.09;;;21.19;45.13
29371;BME280;16357;52.188;7.838;2023-04-23T10:28:13;99878.91;;;21.23;44.95
29371;BME280;16357;52.188;7.838;2023-04-23T10:30:41;99873.53;;;21.29;45.43
29371;BME280;16357;52.188;7.838;2023-04-23T10:33:09;99875.84;;;21.37;45.42
29371;BME280;16357;52.188;7.838;2023-04-23T10:35:55;99878.25;;;21.50;44.78
29371;BME280;16357;52.188;7.838;2023-04-23T10:38:22;99871.31;;;21.59;45.52
29371;BME280;16357;52.188;7.838;2023-04-23T10:40:50;99869.28;;;21.72;44.78
29371;BME280;16357;52.188;7.838;2023-04-23T10:43:20;99866.47;;;21.83;44.52
29371;BME280;16357;52.188;7.838;2023-04-23T10:45:48;99862.78;;;21.95;44.08
29371;BME280;16357;52.188;7.838;2023-04-23T10:48:15;99852.81;;;22.05;43.73
29371;BME280;16357;52.188;7.838;2023-04-23T10:50:42;99850.72;;;22.12;43.25
29371;BME280;16357;52.188;7.838;2023-04-23T10:53:30;99844.03;;;22.20;42.52
29371;BME280;16357;52.188;7.838;2023-04-23T10:56:06;99851.19;;;22.26;42.74
29371;BME280;16357;52.188;7.838;2023-04-23T10:58:50;99842.47;;;22.29;42.20
29371;BME280;16357;52.188;7.838;2023-04-23T11:01:17;99842.47;;;22.29;41.91
29371;BME280;16357;52.188;7.838;2023-04-23T11:03:44;99835.94;;;22.30;42.25
29371;BME280;16357;52.188;7.838;2023-04-23T11:06:13;99836.00;;;22.35;41.88
29371;BME280;16357;52.188;7.838;2023-04-23T11:08:52;99846.47;;;22.44;41.84
29371;BME280;16357;52.188;7.838;2023-04-23T11:11:37;99841.13;;;22.54;41.80
29371;BME280;16357;52.188;7.838;2023-04-23T11:14:14;99841.78;;;22.66;41.82
29371;BME280;16357;52.188;7.838;2023-04-23T11:16:40;99835.59;;;22.76;40.57
29371;BME280;16357;52.188;7.838;2023-04-23T11:19:08;99840.31;;;22.86;39.78
29371;BME280;16357;52.188;7.838;2023-04-23T11:22:12;99836.53;;;22.92;40.06
29371;BME280;16357;52.188;7.838;2023-04-23T11:24:40;99839.28;;;22.92;39.82
29371;BME280;16357;52.188;7.838;2023-04-23T11:27:13;99831.31;;;22.90;40.02
29371;BME280;16357;52.188;7.838;2023-04-23T11:29:42;99831.03;;;22.87;39.43
29371;BME280;16357;52.188;7.838;2023-04-23T11:32:10;99825.25;;;22.83;39.10
29371;BME280;16357;52.188;7.838;2023-04-23T11:34:47;99824.94;;;22.79;39.66
29371;BME280;16357;52.188;7.838;2023-04-23T11:37:16;99813.13;;;22.74;39.26
29371;BME280;16357;52.188;7.838;2023-04-23T11:39:44;99812.56;;;22.72;39.99
29371;BME280;16357;52.188;7.838;2023-04-23T11:42:13;99804.63;;;22.70;39.44
29371;BME280;16357;52.188;7.838;2023-04-23T11:44:43;99802.47;;;22.72;39.68
29371;BME280;16357;52.188;7.838;2023-04-23T11:47:12;99796.47;;;22.75;39.80
29371;BME280;16357;52.188;7.838;2023-04-23T11:49:39;99797.59;;;22.79;39.80
29371;BME280;16357;52.188;7.838;2023-04-23T11:52:09;99791.09;;;22.86;39.39
29371;BME280;16357;52.188;7.838;2023-04-23T11:54:35;99791.97;;;22.91;39.29
29371;BME280;16357;52.188;7.838;2023-04-23T11:57:05;99784.03;;;22.95;38.49
29371;BME280;16357;52.188;7.838;2023-04-23T11:59:32;99785.22;;;22.99;38.67
29371;BME280;16357;52.188;7.838;2023-04-23T12:01:58;99787.66;;;23.00;38.24
29371;BME280;16357;52.188;7.838;2023-04-23T12:04:30;99789.34;;;23.02;38.68
29371;BME280;16357;52.188;7.838;2023-04-23T12:06:58;99789.34;;;23.02;38.33
29371;BME280;16357;52.188;7.838;2023-04-23T12:09:26;99780.28;;;23.01;38.99
29371;BME280;16357;52.188;7.838;2023-04-23T12:11:55;99784.94;;;23.00;38.17
29371;BME280;16357;52.188;7.838;2023-04-23T12:14:27;99779.47;;;23.00;38.60
29371;BME280;16357;52.188;7.838;2023-04-23T12:16:55;99787.38;;;22.97;38.26
29371;BME280;16357;52.188;7.838;2023-04-23T12:19:29;99778.06;;;22.98;37.95
29371;BME280;16357;52.188;7.838;2023-04-23T12:21:58;99781.91;;;22.97;38.28
29371;BME280;16357;52.188;7.838;2023-04-23T12:24:45;99768.53;;;23.00;38.71
29371;BME280;16357;52.188;7.838;2023-04-23T12:27:14;99765.81;;;23.06;38.36
29371;BME280;16357;52.188;7.838;2023-04-23T12:29:41;99761.78;;;23.13;37.73
29371;BME280;16357;52.188;7.838;2023-04-23T12:32:10;99760.47;;;23.21;37.54
29371;BME280;16357;52.188;7.838;2023-04-23T12:34:36;99761.06;;;23.28;38.06
29371;BME280;16357;52.188;7.838;2023-04-23T12:37:23;99754.28;;;23.36;37.73
29371;BME280;16357;52.188;7.838;2023-04-23T12:39:49;99750.47;;;23.42;37.57
29371;BME280;16357;52.188;7.838;2023-04-23T12:42:18;99742.28;;;23.47;36.96
29371;BME280;16357;52.188;7.838;2023-04-23T12:44:44;99745.03;;;23.52;36.72
29371;BME280;16357;52.188;7.838;2023-04-23T12:47:11;99736.53;;;23.54;36.82
29371;BME280;16357;52.188;7.838;2023-04-23T12:49:38;99743.97;;;23.58;36.73
29371;BME280;16357;52.188;7.838;2023-04-23T12:52:06;99732.47;;;23.61;36.43
29371;BME280;16357;52.188;7.838;2023-04-23T12:54:35;99734.97;;;23.68;37.11
29371;BME280;16357;52.188;7.838;2023-04-23T12:57:07;99735.84;;;23.74;36.52
29371;BME280;16357;52.188;7.838;2023-04-23T12:59:36;99729.28;;;23.80;36.93